sensor_id;sensor_type;location;lat;lon;timestamp;pressure;altitude;pressure_sealevel;temperature;humidity
38939;BME280;24211;49.980;19.776;2023-05-07T00:01:04;99431.97;;;12.74;100.00
38939;BME280;24211;49.980;19.776;2023-05-07T00:03:33;99434.16;;;12.77;100.00
38939;BME280;24211;49.980;19.776;2023-05-07T00:06:00;99430.41;;;12.78;100.00
38939;BME280;24211;49.980;19.776;2023-05-07T00:08:28;99429.59;;;12.78;100.00
38939;BME280;24211;49.980;19.776;2023-05-07T00:10:55;99441.16;;;12.78;100.00
38939;BME280;24211;49.980;19.776;2023-05-07T00:13:22;99440.69;;;12.81;100.00
38939;BME280;24211;49.980;19.776;2023-05-07T00:15:50;99442.31;;;12.82;100.00
38939;BME280;24211;49.980;19.776;2023-05-07T00:18:17;99440.22;;;12.84;100.00
38939;BME280;24211;49.980;19.776;2023-05-07T00:20:48;99441.03;;;12.85;100.00
38939;BME280;24211;49.980;19.776;2023-05-07T00:23:15;99436.97;;;12.82;100.00
38939;BME280;24211;49.980;19.776;2023-05-07T00:25:42;99437.44;;;12.79;100.00
38939;BME280;24211;49.980;19.776;2023-05-07T00:28:09;99435.78;;;12.78;100.00
38939;BME280;24211;49.980;19.776;2023-05-07T00:30:37;99432.28;;;12.78;100.00
38939;BME280;24211;49.980;19.776;2023-05-07T00:33:04;99440.69;;;12.81;100.00
38939;BME280;24211;49.980;19.776;2023-05-07T00:35:32;99435.78;;;12.78;100.00
38939;BME280;24211;49.980;19.776;2023-05-07T00:37:59;99435.78;;;12.78;100.00
38939;BME280;24211;49.980;19.776;2023-05-07T00:40:28;99436.59;;;12.79;100.00
38939;BME280;24211;49.980;19.776;2023-05-07T00:42:55;99441.16;;;12.78;100.00
38939;BME280;24211;49.980;19.776;2023-05-07T00:45:27;99450.25;;;12.77;100.00
38939;BME280;24211;49.980;19.776;2023-05-07T00:47:58;99449.53;;;12.70;100.00
38939;BME280;24211;49.980;19.776;2023-05-07T00:50:27;99446.78;;;12.65;100.00
38939;BME280;24211;49.980;19.776;2023-05-07T00:52:56;99460.06;;;12.60;100.00
38939;BME280;24211;49.980;19.776;2023-05-07T00:55:24;99448.53;;;12.60;100.00
38939;BME280;24211;49.980;19.776;2023-05-07T00:57:51;99454.72;;;12.60;100.00
38939;BME280;24211;49.980;19.776;2023-05-07T01:00:19;99452.59;;;12.62;100.00
38939;BME280;24211;49.980;19.776;2023-05-07T01:02:46;99453.75;;;12.66;100.00
38939;BME280;24211;49.980;19.776;2023-05-07T01:05:17;99454.22;;;12.63;100.00
38939;BME280;24211;49.980;19.776;2023-05-07T01:07:47;99461.69;;;12.61;100.00
38939;BME280;24211;49.980;19.776;2023-05-07T01:10:15;99461.34;;;12.58;100.00
38939;BME280;24211;49.980;19.776;2023-05-07T01:12:44;99464.25;;;12.56;100.00
38939;BME280;24211;49.980;19.776;2023-05-07T01:15:13;99463.09;;;12.52;100.00
38939;BME280;24211;49.980;19.776;2023-05-07T01:17:42;99458.19;;;12.49;100.00
38939;BME280;24211;49.980;19.776;2023-05-07T01:20:41;99460.28;;;12.47;100.00
38939;BME280;24211;49.980;19.776;2023-05-07T01:23:11;99460.75;;;12.44;100.00
38939;BME280;24211;49.980;19.776;2023-05-07T01:25:38;99462.41;;;12.45;100.00
38939;BME280;24211;49.980;19.776;2023-05-07T01:28:07;99457.03;;;12.45;100.00
38939;BME280;24211;49.980;19.776;2023-05-07T01:30:41;99457.03;;;12.45;100.00
38939;BME280;24211;49.980;19.776;2023-05-07T01:33:18;99465.19;;;12.50;100.00
38939;BME280;24211;49.980;19.776;2023-05-07T01:35:53;99466.81;;;12.51;100.00
38939;BME280;24211;49.980;19.776;2023-05-07T01:38:23;99463.91;;;12.53;100.00
38939;BME280;24211;49.980;19.776;2023-05-07T01:40:51;99464.72;;;12.53;100.00
38939;BME280;24211;49.980;19.776;2023-05-07T01:43:19;99467.38;;;12.53;100.00
38939;BME280;24211;49.980;19.776;2023-05-07T01:45:47;99470.91;;;12.54;100.00
38939;BME280;24211;49.980;19.776;2023-05-07T01:48:16;99462.84;;;12.54;100.00
38939;BME280;24211;49.980;19.776;2023-05-07T01:50:44;99466.81;;;12.51;100.00
38939;BME280;24211;49.980;19.776;2023-05-07T01:53:12;99473.47;;;12.48;100.00
38939;BME280;24211;49.980;19.776;2023-05-07T01:55:39;99469.38;;;12.46;100.00
38939;BME280;24211;49.980;19.776;2023-05-07T01:58:07;99465.28;;;12.43;100.00
38939;BME280;24211;49.980;19.776;2023-05-07T02:00:35;99464.50;;;12.43;100.00
38939;BME280;24211;49.980;19.776;2023-05-07T02:03:02;99465.53;;;12.42;100.00
38939;BME280;24211;49.980;19.776;2023-05-07T02:05:53;99464.97;;;12.40;100.00
38939;BME280;24211;49.980;19.776;2023-05-07T02:08:47;99467.66;;;12.40;100.00
38939;BME280;24211;49.980;19.776;2023-05-07T02:11:15;99475.09;;;12.38;100.00
38939;BME280;24211;49.980;19.776;2023-05-07T02:13:43;99467.84;;;12.38;100.00
38939;BME280;24211;49.980;19.776;2023-05-07T02:16:10;99466.25;;;12.37;100.00
38939;BME280;24211;49.980;19.776;2023-05-07T02:18:39;99470.19;;;12.35;100.00
38939;BME280;24211;49.980;19.776;2023-05-07T02:21:07;99469.13;;;12.36;100.00
38939;BME280;24211;49.980;19.776;2023-05-07T02:23:34;99471.22;;;12.34;100.00
38939;BME280;24211;49.980;19.776;2023-05-07T02:26:03;99473.34;;;12.32;100.00
38939;BME280;24211;49.980;19.776;2023-05-07T02:28:31;99472.50;;;12.31;100.00
38939;BME280;24211;49.980;19.776;2023-05-07T02:31:05;99480.81;;;12.30;100.00
38939;BME280;24211;49.980;19.776;2023-05-07T02:33:33;99482.91;;;12.28;100.00
38939;BME280;24211;49.980;19.776;2023-05-07T02:36:10;99484.38;;;12.24;100.00
38939;BME280;24211;49.980;19.776;2023-05-07T02:38:50;99480.56;;;12.20;100.00
38939;BME280;24211;49.980;19.776;2023-05-07T02:41:18;99483.69;;;12.17;100.00
38939;BME280;24211;49.980;19.776;2023-05-07T02:43:45;99487.75;;;12.08;100.00
38939;BME280;24211;49.980;19.776;2023-05-07T02:46:13;99489.59;;;11.96;100.00
38939;BME280;24211;49.980;19.776;2023-05-07T02:48:45;99497.50;;;11.91;100.00
38939;BME280;24211;49.980;19.776;2023-05-07T02:51:12;99494.41;;;11.75;100.00
38939;BME280;24211;49.980;19.776;2023-05-07T02:53:41;99501.03;;;11.73;100.00
38939;BME280;24211;49.980;19.776;2023-05-07T02:56:09;99492.59;;;11.88;100.00
38939;BME280;24211;49.980;19.776;2023-05-07T02:58:36;99497.94;;;11.88;100.00
38939;BME280;24211;49.980;19.776;2023-05-07T03:01:05;99495.41;;;11.93;100.00
38939;BME280;24211;49.980;19.776;2023-05-07T03:03:45;99495.97;;;11.95;100.00
38939;BME280;24211;49.980;19.776;2023-05-07T03:06:13;99501.34;;;11.95;100.00
38939;BME280;24211;49.980;19.776;2023-05-07T03:08:40;99502.84;;;11.91;100.00
38939;BME280;24211;49.980;19.776;2023-05-07T03:11:08;99501.69;;;11.87;100.00
38939;BME280;24211;49.980;19.776;2023-05-07T03:13:35;99506.44;;;11.85;100.00
38939;BME280;24211;49.980;19.776;2023-05-07T03:16:03;99499.78;;;11.75;100.00
38939;BME280;24211;49.980;19.776;2023-05-07T03:18:30;99507.22;;;11.73;100.00
38939;BME280;24211;49.980;19.776;2023-05-07T03:20:58;99516.34;;;11.66;100.00
38939;BME280;24211;49.980;19.776;2023-05-07T03:23:25;99513.09;;;11.64;100.00
38939;BME280;24211;49.980;19.776;2023-05-07T03:25:53;99524.34;;;11.54;100.00
38939;BME280;24211;49.980;19.776;2023-05-07T03:28:20;99522.59;;;11.60;100.00
38939;BME280;24211;49.980;19.776;2023-05-07T03:30:53;99529.22;;;11.57;100.00
38939;BME280;24211;49.980;19.776;2023-05-07T03:33:21;99527.16;;;11.59;100.00
38939;BME280;24211;49.980;19.776;2023-05-07T03:35:49;99528.78;;;11.60;100.00
38939;BME280;24211;49.980;19.776;2023-05-07T03:38:21;99530.47;;;11.55;100.00
38939;BME280;24211;49.980;19.776;2023-05-07T03:40:49;99536.16;;;11.47;100.00
38939;BME280;24211;49.980;19.776;2023-05-07T03:43:17;99545.47;;;11.44;100.00
38939;BME280;24211;49.980;19.776;2023-05-07T03:45:49;99546.50;;;11.43;100.00
38939;BME280;24211;49.980;19.776;2023-05-07T03:48:21;99547.91;;;11.46;100.00
38939;BME280;24211;49.980;19.776;2023-05-07T03:50:51;99546.03;;;11.46;100.00
38939;BME280;24211;49.980;19.776;2023-05-07T03:53:19;99549.53;;;11.47;100.00
38939;BME280;24211;49.980;19.776;2023-05-07T03:55:47;99549.75;;;11.45;100.00
38939;BME280;24211;49.980;19.776;2023-05-07T03:58:14;99561.06;;;11.47;100.00
38939;BME280;24211;49.980;19.776;2023-05-07T04:00:42;99565.31;;;11.37;100.00
38939;BME280;24211;49.980;19.776;2023-05-07T04:03:19;99559.56;;;11.33;100.00
38939;BME280;24211;49.980;19.776;2023-05-07T04:05:47;99559.56;;;11.33;100.00
38939;BME280;24211;49.980;19.776;2023-05-07T04:08:14;99561.31;;;11.28;100.00
38939;BME280;24211;49.980;19.776;2023-05-07T04:10:46;99567.44;;;11.28;100.00
38939;BME280;24211;49.980;19.776;2023-05-07T04:13:13;99569.69;;;11.31;100.00
38939;BME280;24211;49.980;19.776;2023-05-07T04:15:42;99571.34;;;11.32;100.00
38939;BME280;24211;49.980;19.776;2023-05-07T04:18:12;99569.91;;;11.30;100.00
38939;BME280;24211;49.980;19.776;2023-05-07T04:20:43;99580.66;;;11.23;100.00
38939;BME280;24211;49.980;19.776;2023-05-07T04:23:12;99586.63;;;11.07;100.00
38939;BME280;24211;49.980;19.776;2023-05-07T04:25:41;99586.78;;;11.12;100.00
38939;BME280;24211;49.980;19.776;2023-05-07T04:28:23;99591.97;;;11.07;100.00
38939;BME280;24211;49.980;19.776;2023-05-07T04:30:51;99591.06;;;11.13;100.00
38939;BME280;24211;49.980;19.776;2023-05-07T04:33:20;99599.72;;;11.15;100.00
38939;BME280;24211;49.980;19.776;2023-05-07T04:35:49;99604.44;;;11.13;100.00
38939;BME280;24211;49.980;19.776;2023-05-07T04:38:16;99601.00;;;11.06;100.00
38939;BME280;24211;49.980;19.776;2023-05-07T04:40:45;99607.00;;;11.08;100.00
38939;BME280;24211;49.980;19.776;2023-05-07T04:43:17;99599.84;;;11.02;100.00
38939;BME280;24211;49.980;19.776;2023-05-07T04:45:52;99617.56;;;10.96;100.00
38939;BME280;24211;49.980;19.776;2023-05-07T04:48:22;99614.53;;;10.93;100.00
38939;BME280;24211;49.980;19.776;2023-05-07T04:50:52;99613.47;;;10.94;100.00
38939;BME280;24211;49.980;19.776;2023-05-07T04:53:20;99613.72;;;10.92;100.00
38939;BME280;24211;49.980;19.776;2023-05-07T04:55:56;99617.19;;;10.93;100.00
38939;BME280;24211;49.980;19.776;2023-05-07T04:58:27;99627.91;;;10.93;100.00
38939;BME280;24211;49.980;19.776;2023-05-07T05:00:54;99623.56;;;10.92;100.00
38939;BME280;24211;49.980;19.776;2023-05-07T05:03:22;99629.97;;;10.91;100.00
38939;BME280;24211;49.980;19.776;2023-05-07T05:05:51;99636.78;;;10.87;100.00
38939;BME280;24211;49.980;19.776;2023-05-07T05:08:21;99635.75;;;10.88;100.00
38939;BME280;24211;49.980;19.776;2023-05-07T05:10:48;99641.53;;;10.85;100.00
38939;BME280;24211;49.980;19.776;2023-05-07T05:13:17;99643.22;;;10.79;100.00
38939;BME280;24211;49.980;19.776;2023-05-07T05:15:45;99634.59;;;10.77;100.00
38939;BME280;24211;49.980;19.776;2023-05-07T05:18:13;99650.22;;;10.80;100.00
38939;BME280;24211;49.980;19.776;2023-05-07T05:20:40;99651.03;;;10.81;100.00
38939;BME280;24211;49.980;19.776;2023-05-07T05:23:08;99649.81;;;10.77;100.00
38939;BME280;24211;49.980;19.776;2023-05-07T05:25:36;99653.97;;;10.73;100.00
38939;BME280;24211;49.980;19.776;2023-05-07T05:28:08;99653.38;;;10.71;100.00
38939;BME280;24211;49.980;19.776;2023-05-07T05:30:35;99654.78;;;10.73;100.00
38939;BME280;24211;49.980;19.776;2023-05-07T05:33:03;99667.59;;;10.65;100.00
38939;BME280;24211;49.980;19.776;2023-05-07T05:35:31;99669.44;;;10.64;100.00
38939;BME280;24211;49.980;19.776;2023-05-07T05:38:02;99669.50;;;10.58;100.00
38939;BME280;24211;49.980;19.776;2023-05-07T05:40:30;99673.00;;;10.58;100.00
38939;BME280;24211;49.980;19.776;2023-05-07T05:42:57;99674.28;;;10.49;100.00
38939;BME280;24211;49.980;19.776;2023-05-07T05:45:25;99684.53;;;10.52;100.00
38939;BME280;24211;49.980;19.776;2023-05-07T05:47:53;99684.75;;;10.50;100.00
38939;BME280;24211;49.980;19.776;2023-05-07T05:50:23;99690.28;;;10.56;100.00
38939;BME280;24211;49.980;19.776;2023-05-07T05:52:50;99684.53;;;10.52;100.00
38939;BME280;24211;49.980;19.776;2023-05-07T05:55:19;99697.25;;;10.57;100.00
38939;BME280;24211;49.980;19.776;2023-05-07T05:57:46;99692.34;;;10.54;100.00
38939;BME280;24211;49.980;19.776;2023-05-07T06:00:16;99694.88;;;10.42;100.00
38939;BME280;24211;49.980;19.776;2023-05-07T06:02:46;99695.34;;;10.32;100.00
38939;BME280;24211;49.980;19.776;2023-05-07T06:05:20;99705.34;;;10.43;100.00
38939;BME280;24211;49.980;19.776;2023-05-07T06:07:51;99699.38;;;10.48;100.00
38939;BME280;24211;49.980;19.776;2023-05-07T06:10:19;99704.75;;;10.41;100.00
38939;BME280;24211;49.980;19.776;2023-05-07T06:12:46;99711.00;;;10.22;100.00
38939;BME280;24211;49.980;19.776;2023-05-07T06:15:15;99715.91;;;10.25;100.00
38939;BME280;24211;49.980;19.776;2023-05-07T06:17:42;99718.81;;;10.17;100.00
38939;BME280;24211;49.980;19.776;2023-05-07T06:20:11;99734.50;;;9.94;100.00
38939;BME280;24211;49.980;19.776;2023-05-07T06:22:40;99722.56;;;10.03;100.00
38939;BME280;24211;49.980;19.776;2023-05-07T06:25:09;99725.09;;;9.85;100.00
38939;BME280;24211;49.980;19.776;2023-05-07T06:27:37;99732.44;;;9.96;100.00
38939;BME280;24211;49.980;19.776;2023-05-07T06:30:07;99731.44;;;9.97;100.00
38939;BME280;24211;49.980;19.776;2023-05-07T06:32:36;99730.94;;;9.43;100.00
38939;BME280;24211;49.980;19.776;2023-05-07T06:35:04;99731.72;;;9.50;100.00
38939;BME280;24211;49.980;19.776;2023-05-07T06:37:34;99733.91;;;9.85;100.00
38939;BME280;24211;49.980;19.776;2023-05-07T06:40:05;99741.84;;;10.05;100.00
38939;BME280;24211;49.980;19.776;2023-05-07T06:42:36;99739.78;;;10.20;100.00
38939;BME280;24211;49.980;19.776;2023-05-07T06:45:23;99736.09;;;10.21;100.00
38939;BME280;24211;49.980;19.776;2023-05-07T06:47:54;99741.44;;;10.21;100.00
38939;BME280;24211;49.980;19.776;2023-05-07T06:50:22;99743.50;;;10.19;100.00
38939;BME280;24211;49.980;19.776;2023-05-07T06:52:54;99750.66;;;10.25;100.00
38939;BME280;24211;49.980;19.776;2023-05-07T06:55:21;99750.13;;;9.84;100.00
38939;BME280;24211;49.980;19.776;2023-05-07T06:57:49;99750.94;;;9.91;100.00
38939;BME280;24211;49.980;19.776;2023-05-07T07:00:18;99757.88;;;10.05;100.00
38939;BME280;24211;49.980;19.776;2023-05-07T07:02:51;99759.63;;;9.54;100.00
38939;BME280;24211;49.980;19.776;2023-05-07T07:05:21;99760.81;;;9.84;100.00
38939;BME280;24211;49.980;19.776;2023-05-07T07:07:49;99760.78;;;9.97;100.00
38939;BME280;24211;49.980;19.776;2023-05-07T07:10:21;99755.84;;;10.01;100.00
38939;BME280;24211;49.980;19.776;2023-05-07T07:12:50;99765.28;;;10.03;100.00
38939;BME280;24211;49.980;19.776;2023-05-07T07:15:20;99769.03;;;9.89;100.00
38939;BME280;24211;49.980;19.776;2023-05-07T07:17:53;99767.97;;;9.97;100.00
38939;BME280;24211;49.980;19.776;2023-05-07T07:20:22;99772.28;;;9.91;100.00
38939;BME280;24211;49.980;19.776;2023-05-07T07:22:49;99769.41;;;9.99;100.00
38939;BME280;24211;49.980;19.776;2023-05-07T07:25:17;99779.50;;;9.71;100.00
38939;BME280;24211;49.980;19.776;2023-05-07T07:27:45;99778.03;;;9.88;100.00
38939;BME280;24211;49.980;19.776;2023-05-07T07:30:14;99780.09;;;9.99;100.00
38939;BME280;24211;49.980;19.776;2023-05-07T07:32:45;99793.69;;;9.52;100.00
38939;BME280;24211;49.980;19.776;2023-05-07T07:35:14;99792.44;;;9.74;100.00
38939;BME280;24211;49.980;19.776;2023-05-07T07:37:42;99790.38;;;9.89;100.00
38939;BME280;24211;49.980;19.776;2023-05-07T07:40:11;99806.78;;;9.99;100.00
38939;BME280;24211;49.980;19.776;2023-05-07T07:42:39;99801.50;;;9.66;100.00
38939;BME280;24211;49.980;19.776;2023-05-07T07:45:07;99797.81;;;9.35;100.00
38939;BME280;24211;49.980;19.776;2023-05-07T07:47:40;99807.47;;;9.55;100.00
38939;BME280;24211;49.980;19.776;2023-05-07T07:50:08;99810.53;;;9.46;100.00
38939;BME280;24211;49.980;19.776;2023-05-07T07:52:37;99808.06;;;9.77;100.00
38939;BME280;24211;49.980;19.776;2023-05-07T07:55:07;99813.00;;;9.80;100.00
38939;BME280;24211;49.980;19.776;2023-05-07T07:57:35;99817.31;;;9.55;100.00
38939;BME280;24211;49.980;19.776;2023-05-07T08:00:04;99823.44;;;9.68;100.00
38939;BME280;24211;49.980;19.776;2023-05-07T08:02:42;99815.88;;;9.72;100.00
38939;BME280;24211;49.980;19.776;2023-05-07T08:05:16;99824.91;;;9.64;100.00
38939;BME280;24211;49.980;19.776;2023-05-07T08:07:44;99824.91;;;9.77;100.00
38939;BME280;24211;49.980;19.776;2023-05-07T08:10:12;99823.25;;;9.70;100.00
38939;BME280;24211;49.980;19.776;2023-05-07T08:12:40;99832.28;;;9.69;100.00
38939;BME280;24211;49.980;19.776;2023-05-07T08:15:08;99822.44;;;9.63;100.00
38939;BME280;24211;49.980;19.776;2023-05-07T08:17:36;99833.09;;;9.76;100.00
38939;BME280;24211;49.980;19.776;2023-05-07T08:20:03;99832.06;;;9.64;100.00
38939;BME280;24211;49.980;19.776;2023-05-07T08:22:31;99837.63;;;9.82;100.00
38939;BME280;24211;49.980;19.776;2023-05-07T08:24:59;99835.75;;;9.89;100.00
38939;BME280;24211;49.980;19.776;2023-05-07T08:27:28;99844.59;;;9.90;100.00
38939;BME280;24211;49.980;19.776;2023-05-07T08:29:55;99844.78;;;10.01;100.00
38939;BME280;24211;49.980;19.776;2023-05-07T08:32:22;99845.81;;;9.74;100.00
38939;BME280;24211;49.980;19.776;2023-05-07T08:34:50;99854.47;;;9.63;100.00
38939;BME280;24211;49.980;19.776;2023-05-07T08:37:17;99854.47;;;9.63;100.00
38939;BME280;24211;49.980;19.776;2023-05-07T08:39:45;99858.13;;;9.88;100.00
38939;BME280;24211;49.980;19.776;2023-05-07T08:42:23;99863.09;;;9.65;100.00
38939;BME280;24211;49.980;19.776;2023-05-07T08:44:51;99868.00;;;9.94;100.00
38939;BME280;24211;49.980;19.776;2023-05-07T08:47:29;99873.16;;;9.63;100.00
38939;BME280;24211;49.980;19.776;2023-05-07T08:50:02;99879.47;;;9.49;100.00
38939;BME280;24211;49.980;19.776;2023-05-07T08:52:30;99879.47;;;9.49;100.00
38939;BME280;24211;49.980;19.776;2023-05-07T08:54:58;99877.03;;;9.47;100.00
38939;BME280;24211;49.980;19.776;2023-05-07T08:57:26;99877.44;;;9.44;100.00
38939;BME280;24211;49.980;19.776;2023-05-07T08:59:53;99888.94;;;9.45;100.00
38939;BME280;24211;49.980;19.776;2023-05-07T09:02:21;99876.81;;;9.49;100.00
38939;BME280;24211;49.980;19.776;2023-05-07T09:04:49;99890.59;;;9.46;100.00
38939;BME280;24211;49.980;19.776;2023-05-07T09:07:19;99885.88;;;9.74;100.00
38939;BME280;24211;49.980;19.776;2023-05-07T09:09:47;99891.00;;;9.69;100.00
38939;BME280;24211;49.980;19.776;2023-05-07T09:12:14;99889.56;;;9.79;100.00
38939;BME280;24211;49.980;19.776;2023-05-07T09:14:41;99897.97;;;9.83;100.00
38939;BME280;24211;49.980;19.776;2023-05-07T09:17:09;99902.06;;;9.66;100.00
38939;BME280;24211;49.980;19.776;2023-05-07T09:19:37;99907.81;;;9.56;100.00
38939;BME280;24211;49.980;19.776;2023-05-07T09:22:07;99904.94;;;9.45;100.00
38939;BME280;24211;49.980;19.776;2023-05-07T09:24:51;99908.81;;;9.49;100.00
38939;BME280;24211;49.980;19.776;2023-05-07T09:27:22;99913.56;;;9.73;100.00
38939;BME280;24211;49.980;19.776;2023-05-07T09:29:50;99920.56;;;9.74;100.00
38939;BME280;24211;49.980;19.776;2023-05-07T09:32:18;99917.47;;;9.83;100.00
38939;BME280;24211;49.980;19.776;2023-05-07T09:34:45;99920.56;;;9.94;100.00
38939;BME280;24211;49.980;19.776;2023-05-07T09:37:16;99933.31;;;9.85;100.00
38939;BME280;24211;49.980;19.776;2023-05-07T09:39:48;99932.84;;;9.36;100.00
38939;BME280;24211;49.980;19.776;2023-05-07T09:42:24;99929.53;;;9.34;100.00
38939;BME280;24211;49.980;19.776;2023-05-07T09:44:54;99924.22;;;9.53;100.00
38939;BME280;24211;49.980;19.776;2023-05-07T09:47:29;99935.09;;;9.45;100.00
38939;BME280;24211;49.980;19.776;2023-05-07T09:50:03;99938.56;;;9.26;100.00
38939;BME280;24211;49.980;19.776;2023-05-07T09:52:34;99946.06;;;9.03;100.00
38939;BME280;24211;49.980;19.776;2023-05-07T09:55:05;99946.50;;;9.06;100.00
38939;BME280;24211;49.980;19.776;2023-05-07T09:57:34;99945.72;;;9.32;100.00
38939;BME280;24211;49.980;19.776;2023-05-07T10:00:07;99946.44;;;9.73;100.00
38939;BME280;24211;49.980;19.776;2023-05-07T10:02:51;99946.44;;;9.80;100.00
38939;BME280;24211;49.980;19.776;2023-05-07T10:05:27;99943.97;;;9.92;100.00
38939;BME280;24211;49.980;19.776;2023-05-07T10:07:58;99958.75;;;9.74;100.00
38939;BME280;24211;49.980;19.776;2023-05-07T10:10:29;99957.50;;;9.51;100.00
38939;BME280;24211;49.980;19.776;2023-05-07T10:12:57;99959.59;;;9.81;100.00
38939;BME280;24211;49.980;19.776;2023-05-07T10:15:32;99963.63;;;9.51;100.00
38939;BME280;24211;49.980;19.776;2023-05-07T10:18:03;99958.94;;;9.73;100.00
38939;BME280;24211;49.980;19.776;2023-05-07T10:20:34;99965.94;;;9.80;100.00
38939;BME280;24211;49.980;19.776;2023-05-07T10:23:06;99966.97;;;9.86;100.00
38939;BME280;24211;49.980;19.776;2023-05-07T10:25:41;99970.47;;;9.86;100.00
38939;BME280;24211;49.980;19.776;2023-05-07T10:28:21;99964.09;;;9.68;100.00
38939;BME280;24211;49.980;19.776;2023-05-07T10:31:26;99973.72;;;9.62;100.00
38939;BME280;24211;49.980;19.776;2023-05-07T10:34:08;99967.38;;;9.70;100.00
38939;BME280;24211;49.980;19.776;2023-05-07T10:36:37;99983.13;;;9.52;100.00
38939;BME280;24211;49.980;19.776;2023-05-07T10:39:06;99985.00;;;9.64;100.00
38939;BME280;24211;49.980;19.776;2023-05-07T10:41:34;99980.41;;;9.39;100.00
38939;BME280;24211;49.980;19.776;2023-05-07T10:44:01;99989.06;;;9.41;100.00
38939;BME280;24211;49.980;19.776;2023-05-07T10:46:32;99982.91;;;9.47;100.00
38939;BME280;24211;49.980;19.776;2023-05-07T10:49:17;99985.84;;;9.65;100.00
38939;BME280;24211;49.980;19.776;2023-05-07T10:52:18;99990.34;;;9.58;100.00
38939;BME280;24211;49.980;19.776;2023-05-07T11:01:14;99992.03;;;9.92;100.00
38939;BME280;24211;49.980;19.776;2023-05-07T11:04:14;99997.38;;;9.98;100.00
38939;BME280;24211;49.980;19.776;2023-05-07T11:09:57;99997.31;;;9.59;100.00
38939;BME280;24211;49.980;19.776;2023-05-07T11:12:50;99996.31;;;9.66;100.00
38939;BME280;24211;49.980;19.776;2023-05-07T11:15:44;99992.44;;;9.82;100.00
38939;BME280;24211;49.980;19.776;2023-05-07T11:18:48;99995.69;;;9.71;100.00
38939;BME280;24211;49.980;19.776;2023-05-07T11:21:41;100004.31;;;9.73;100.00
38939;BME280;24211;49.980;19.776;2023-05-07T11:24:42;99996.94;;;9.88;100.00
38939;BME280;24211;49.980;19.776;2023-05-07T11:27:12;99998.63;;;10.02;100.00
38939;BME280;24211;49.980;19.776;2023-05-07T11:29:46;100002.72;;;9.85;100.00
38939;BME280;24211;49.980;19.776;2023-05-07T11:32:14;100007.97;;;9.46;100.00
38939;BME280;24211;49.980;19.776;2023-05-07T11:34:53;100012.47;;;9.52;100.00
38939;BME280;24211;49.980;19.776;2023-05-07T11:37:23;100007.97;;;9.59;100.00
38939;BME280;24211;49.980;19.776;2023-05-07T11:40:06;100015.78;;;9.54;100.00
38939;BME280;24211;49.980;19.776;2023-05-07T11:42:39;100020.28;;;9.53;100.00
38939;BME280;24211;49.980;19.776;2023-05-07T11:45:08;100029.31;;;9.46;100.00
38939;BME280;24211;49.980;19.776;2023-05-07T11:47:36;100023.91;;;9.33;100.00
38939;BME280;24211;49.980;19.776;2023-05-07T11:50:08;100032.09;;;9.25;100.00
38939;BME280;24211;49.980;19.776;2023-05-07T11:52:35;100030.53;;;9.50;100.00
38939;BME280;24211;49.980;19.776;2023-05-07T11:55:04;100027.31;;;9.74;100.00
38939;BME280;24211;49.980;19.776;2023-05-07T11:57:33;100030.16;;;9.53;100.00
38939;BME280;24211;49.980;19.776;2023-05-07T12:00:02;100028.88;;;9.49;100.00
38939;BME280;24211;49.980;19.776;2023-05-07T12:02:40;100031.81;;;9.67;100.00
38939;BME280;24211;49.980;19.776;2023-05-07T12:05:09;100037.19;;;9.73;100.00
38939;BME280;24211;49.980;19.776;2023-05-07T12:07:37;100033.38;;;9.42;100.00
38939;BME280;24211;49.980;19.776;2023-05-07T12:10:06;100030.16;;;9.53;100.00
38939;BME280;24211;49.980;19.776;2023-05-07T12:12:46;100034.72;;;9.72;100.00
38939;BME280;24211;49.980;19.776;2023-05-07T12:15:17;100032.00;;;9.59;100.00
38939;BME280;24211;49.980;19.776;2023-05-07T12:17:44;100032.28;;;9.77;100.00
38939;BME280;24211;49.980;19.776;2023-05-07T12:20:12;100041.31;;;9.89;100.00
38939;BME280;24211;49.980;19.776;2023-05-07T12:22:41;100041.31;;;9.89;100.00
38939;BME280;24211;49.980;19.776;2023-05-07T12:25:09;100042.53;;;9.80;100.00
38939;BME280;24211;49.980;19.776;2023-05-07T12:27:40;100046.66;;;9.82;100.00
38939;BME280;24211;49.980;19.776;2023-05-07T12:30:10;100044.22;;;9.94;100.00
38939;BME280;24211;49.980;19.776;2023-05-07T12:32:38;100046.47;;;10.04;100.00
38939;BME280;24211;49.980;19.776;2023-05-07T12:35:06;100045.00;;;9.88;100.00
38939;BME280;24211;49.980;19.776;2023-05-07T12:37:35;100045.25;;;10.00;100.00
38939;BME280;24211;49.980;19.776;2023-05-07T12:40:09;100040.94;;;9.92;100.00
38939;BME280;24211;49.980;19.776;2023-05-07T12:42:40;100038.69;;;10.02;100.00
38939;BME280;24211;49.980;19.776;2023-05-07T12:45:12;100045.22;;;9.93;100.00
38939;BME280;24211;49.980;19.776;2023-05-07T12:47:45;100049.50;;;9.81;100.00
38939;BME280;24211;49.980;19.776;2023-05-07T12:50:16;100048.63;;;9.61;100.00
38939;BME280;24211;49.980;19.776;2023-05-07T12:52:45;100057.28;;;9.63;100.00
38939;BME280;24211;49.980;19.776;2023-05-07T12:55:15;100057.44;;;9.55;100.00
38939;BME280;24211;49.980;19.776;2023-05-07T12:57:49;100062.19;;;9.66;100.00
38939;BME280;24211;49.980;19.776;2023-05-07T13:00:31;100059.34;;;9.74;100.00
38939;BME280;24211;49.980;19.776;2023-05-07T13:02:59;100057.31;;;9.76;100.00
38939;BME280;24211;49.980;19.776;2023-05-07T13:05:26;100054.03;;;9.74;100.00
38939;BME280;24211;49.980;19.776;2023-05-07T13:07:58;100061.00;;;9.75;100.00
38939;BME280;24211;49.980;19.776;2023-05-07T13:10:26;100060.38;;;9.73;100.00